Time;durP1;ratioP1;P1;durP2;ratioP2;P2;SDS_P1;SDS_P2;PMS_P1;PMS_P2;Temp;Humidity;BMP_temperature;BMP_pressure;BME280_temperature;BME280_humidity;BME280_pressure;Samples;Min_cycle;Max_cycle;Signal;HPM_P1;HPM_P2
2023/09/25 04:05:46;;;;;;;0.30;0.30;;;8.10;99.90;;;;;;5639702;23;20238;-60
2023/09/25 04:08:12;;;;;;;0.30;0.30;;;8.10;99.90;;;;;;5074347;28;20180;-60
2023/09/25 04:10:37;;;;;;;0.30;0.30;;;8.10;99.90;;;;;;5076918;28;20168;-61
2023/09/25 04:13:04;;;;;;;0.30;0.30;;;8.10;99.90;;;;;;5076681;28;20172;-61
2023/09/25 04:15:31;;;;;;;0.82;0.82;;;8.10;99.90;;;;;;5070923;28;20565;-59
2023/09/25 04:17:57;;;;;;;0.30;0.30;;;8.10;99.90;;;;;;5056374;28;20215;-60
2023/09/25 04:20:26;;;;;;;0.30;0.30;;;8.10;99.90;;;;;;5056460;28;20234;-60
2023/09/25 04:22:53;;;;;;;0.60;0.60;;;8.00;99.90;;;;;;5056418;28;20235;-60
2023/09/25 04:25:19;;;;;;;0.30;0.30;;;8.00;99.90;;;;;;5055481;28;20670;-61
2023/09/25 04:27:50;;;;;;;0.40;0.40;;;8.00;99.90;;;;;;5055864;28;20169;-61
2023/09/25 04:30:17;;;;;;;0.30;0.20;;;8.00;99.90;;;;;;5056340;28;20844;-60
2023/09/25 04:32:44;;;;;;;0.30;0.30;;;8.00;99.90;;;;;;5056403;28;20208;-62
2023/09/25 04:35:12;;;;;;;0.30;0.30;;;8.00;99.90;;;;;;5054434;28;20557;-61
2023/09/25 04:37:38;;;;;;;0.45;0.45;;;7.90;99.90;;;;;;5056284;28;20259;-61
2023/09/25 04:40:13;;;;;;;0.38;0.38;;;7.90;99.90;;;;;;5055981;28;20593;-61
2023/09/25 04:42:39;;;;;;;0.50;0.50;;;7.90;99.90;;;;;;5073800;28;20176;-61
2023/09/25 04:45:06;;;;;;;0.30;0.30;;;7.90;99.90;;;;;;5075767;28;20202;-60
2023/09/25 04:47:31;;;;;;;0.30;0.30;;;7.90;99.90;;;;;;5076115;28;20169;-61
2023/09/25 04:49:57;;;;;;;1.73;1.63;;;7.90;99.90;;;;;;5076044;28;20176;-61
2023/09/25 04:52:24;;;;;;;0.30;0.30;;;7.90;99.90;;;;;;5075959;28;20251;-61
2023/09/25 04:54:49;;;;;;;0.30;0.30;;;7.90;99.90;;;;;;5075313;28;20594;-62
2023/09/25 04:57:15;;;;;;;0.30;0.30;;;7.80;99.90;;;;;;5075781;28;20260;-59
2023/09/25 04:59:40;;;;;;;0.87;0.83;;;7.80;99.90;;;;;;5075683;28;20554;-62
2023/09/25 05:02:06;;;;;;;0.30;0.30;;;7.80;99.90;;;;;;5075895;28;20210;-62
2023/09/25 05:04:32;;;;;;;0.57;0.57;;;7.80;99.90;;;;;;5075204;28;20218;-61
2023/09/25 05:06:59;;;;;;;0.30;0.30;;;7.80;99.90;;;;;;5067250;28;20265;-61
2023/09/25 05:09:24;;;;;;;0.30;0.30;;;7.70;99.90;;;;;;5055460;28;20184;-62
2023/09/25 05:11:50;;;;;;;0.30;0.30;;;7.70;99.90;;;;;;5059379;28;20173;-62
2023/09/25 05:14:16;;;;;;;0.30;0.30;;;7.70;99.90;;;;;;5059009;28;20649;-60
2023/09/25 05:16:41;;;;;;;0.60;0.60;;;7.70;99.90;;;;;;5055417;28;20456;-59
2023/09/25 05:19:07;;;;;;;0.30;0.30;;;7.70;99.90;;;;;;5064835;28;20192;-61
2023/09/25 05:21:33;;;;;;;0.30;0.30;;;7.70;99.90;;;;;;5067941;28;20168;-60
2023/09/25 05:23:58;;;;;;;0.63;0.63;;;7.60;99.90;;;;;;5055014;28;20179;-60
2023/09/25 05:26:24;;;;;;;0.30;0.30;;;7.60;99.90;;;;;;5055095;28;20189;-61
2023/09/25 05:28:50;;;;;;;0.30;0.30;;;7.60;99.90;;;;;;5055499;28;20230;-61
2023/09/25 05:31:15;;;;;;;0.30;0.30;;;7.60;99.90;;;;;;5055288;28;20175;-62
2023/09/25 05:33:41;;;;;;;0.30;0.30;;;7.70;99.90;;;;;;5055175;28;20260;-61
2023/09/25 05:36:07;;;;;;;0.40;0.40;;;7.70;99.90;;;;;;5055208;28;20197;-60
2023/09/25 05:38:32;;;;;;;0.30;0.30;;;7.80;99.90;;;;;;5066992;28;20550;-60
2023/09/25 05:40:58;;;;;;;0.30;0.30;;;7.90;99.90;;;;;;5075009;28;20303;-60
2023/09/25 05:43:24;;;;;;;0.40;0.40;;;7.90;99.90;;;;;;5074051;28;20409;-60
2023/09/25 05:45:49;;;;;;;0.30;0.30;;;7.90;99.90;;;;;;5060047;28;20200;-61
2023/09/25 05:48:15;;;;;;;0.30;0.30;;;8.00;99.90;;;;;;5055038;28;20255;-61
2023/09/25 05:50:40;;;;;;;0.30;0.30;;;8.00;99.90;;;;;;5054987;28;20249;-60
2023/09/25 05:53:06;;;;;;;0.33;0.33;;;8.10;99.90;;;;;;5073685;28;20176;-60
2023/09/25 05:55:31;;;;;;;0.30;0.30;;;8.20;99.90;;;;;;5074324;28;20757;-60
2023/09/25 05:57:57;;;;;;;0.40;0.40;;;8.30;99.90;;;;;;5067673;28;20209;-61
2023/09/25 06:00:23;;;;;;;0.40;0.40;;;8.30;99.90;;;;;;5066932;28;20260;-61
2023/09/25 06:02:48;;;;;;;0.30;0.30;;;8.40;99.90;;;;;;5074528;28;20169;-61
2023/09/25 06:05:15;;;;;;;0.30;0.30;;;8.50;99.90;;;;;;5066342;28;20256;-60
2023/09/25 06:07:42;;;;;;;0.40;0.40;;;8.70;99.90;;;;;;5055292;28;20267;-61
2023/09/25 06:10:08;;;;;;;0.30;0.30;;;8.80;99.90;;;;;;5057098;28;20251;-62
2023/09/25 06:12:33;;;;;;;0.35;0.35;;;9.00;99.90;;;;;;5054318;28;20178;-61
2023/09/25 06:14:59;;;;;;;0.37;0.37;;;9.10;99.90;;;;;;5054958;28;20196;-61
2023/09/25 06:17:28;;;;;;;0.30;0.30;;;9.30;99.90;;;;;;5054381;28;20673;-62
2023/09/25 06:19:54;;;;;;;0.40;0.40;;;9.40;99.90;;;;;;5054270;28;20224;-61
2023/09/25 06:22:23;;;;;;;0.30;0.30;;;9.40;99.90;;;;;;5054279;28;20219;-60
2023/09/25 06:24:49;;;;;;;1.20;1.10;;;9.60;99.90;;;;;;5054396;28;20706;-62
2023/09/25 06:27:14;;;;;;;0.30;0.20;;;9.70;99.90;;;;;;5064895;28;20261;-60
2023/09/25 06:29:41;;;;;;;0.30;0.30;;;9.80;99.90;;;;;;5054038;28;20260;-61
2023/09/25 06:32:06;;;;;;;0.30;0.30;;;10.00;99.90;;;;;;5053980;28;20223;-60
2023/09/25 06:34:32;;;;;;;0.40;0.40;;;10.10;99.90;;;;;;5051714;28;20178;-61
2023/09/25 06:36:57;;;;;;;0.30;0.30;;;10.20;99.90;;;;;;5052789;28;20178;-61
2023/09/25 06:39:23;;;;;;;0.40;0.40;;;10.40;99.90;;;;;;5054279;28;20493;-62
2023/09/25 06:41:49;;;;;;;0.40;0.40;;;10.50;99.90;;;;;;5053705;28;20173;-61
2023/09/25 06:44:14;;;;;;;0.30;0.30;;;10.60;99.90;;;;;;5053430;28;20245;-61
2023/09/25 06:46:41;;;;;;;0.40;0.40;;;11.00;99.90;;;;;;5053887;28;20541;-62
2023/09/25 06:49:07;;;;;;;0.40;0.40;;;11.30;99.90;;;;;;5053969;28;20176;-61
2023/09/25 06:51:32;;;;;;;0.30;0.30;;;11.50;99.90;;;;;;5053743;28;20463;-62
2023/09/25 06:53:58;;;;;;;0.40;0.40;;;11.70;99.90;;;;;;5066014;28;20186;-62
2023/09/25 06:56:24;;;;;;;0.30;0.30;;;11.90;99.90;;;;;;5073517;28;20613;-61
2023/09/25 06:58:51;;;;;;;0.40;0.40;;;12.10;99.90;;;;;;5073665;28;20191;-60
2023/09/25 07:01:18;;;;;;;0.30;0.30;;;12.40;99.90;;;;;;5073696;28;20291;-62
2023/09/25 07:03:47;;;;;;;0.30;0.30;;;12.80;99.90;;;;;;5073823;28;20429;-61
2023/09/25 07:06:12;;;;;;;0.30;0.30;;;13.20;99.90;;;;;;5072964;28;20200;-63
2023/09/25 07:08:38;;;;;;;0.47;0.47;;;13.80;99.90;;;;;;5073612;28;20418;-61
2023/09/25 07:11:04;;;;;;;0.80;0.80;;;14.80;99.90;;;;;;5073651;28;20620;-62
2023/09/25 07:13:30;;;;;;;0.60;0.60;;;15.60;99.90;;;;;;5073661;28;20177;-62
2023/09/25 07:16:08;;;;;;;0.30;0.30;;;16.10;99.90;;;;;;5055104;28;20508;-61
2023/09/25 07:18:34;;;;;;;0.30;0.30;;;16.40;99.90;;;;;;5053478;28;20459;-61
2023/09/25 07:21:00;;;;;;;0.30;0.30;;;16.40;99.90;;;;;;5053468;28;20469;-61
2023/09/25 07:23:26;;;;;;;0.30;0.30;;;16.20;99.90;;;;;;5053344;28;20897;-63
2023/09/25 07:25:59;;;;;;;0.30;0.30;;;16.10;99.90;;;;;;5053227;28;20189;-61
2023/09/25 07:28:25;;;;;;;0.30;0.30;;;16.00;99.90;;;;;;5053554;28;20200;-63
2023/09/25 07:30:50;;;;;;;0.30;0.30;;;16.10;99.90;;;;;;5053268;28;20870;-62
2023/09/25 07:33:16;;;;;;;0.33;0.33;;;16.20;99.90;;;;;;5053493;28;20176;-64
2023/09/25 07:35:42;;;;;;;0.30;0.30;;;16.50;99.90;;;;;;5053053;28;20203;-61
2023/09/25 07:38:08;;;;;;;0.73;0.73;;;16.70;99.90;;;;;;5062978;28;20569;-64
2023/09/25 07:40:33;;;;;;;0.60;0.60;;;17.10;99.90;;;;;;5073176;28;20203;-62
2023/09/25 07:42:59;;;;;;;0.30;0.20;;;17.70;99.90;;;;;;5073347;28;20212;-64
2023/09/25 07:45:25;;;;;;;0.40;0.40;;;18.40;98.90;;;;;;5075478;28;20195;-63
2023/09/25 07:47:54;;;;;;;0.30;0.30;;;19.20;97.20;;;;;;5077210;28;20172;-64
2023/09/25 07:50:22;;;;;;;0.30;0.30;;;20.00;95.60;;;;;;5077346;28;20446;-62
2023/09/25 07:52:48;;;;;;;0.30;0.30;;;20.90;95.00;;;;;;5067401;28;20403;-62
2023/09/25 07:55:14;;;;;;;0.30;0.30;;;21.90;93.10;;;;;;5056736;28;20793;-62
2023/09/25 07:57:40;;;;;;;0.30;0.30;;;22.60;91.00;;;;;;5056997;28;20423;-63
2023/09/25 08:00:37;;;;;;;0.40;0.40;;;23.10;90.30;;;;;;5056877;28;20213;-62
2023/09/25 08:02:56;;;;;;;0.43;0.40;;;23.80;88.70;;;;;;5056521;28;20391;-62
2023/09/25 08:05:22;;;;;;;0.50;0.50;;;24.60;86.70;;;;;;5056587;28;20438;-61
2023/09/25 08:07:49;;;;;;;0.87;0.87;;;25.20;84.20;;;;;;5056863;28;20227;-64
2023/09/25 08:10:17;;;;;;;0.63;0.50;;;25.90;83.10;;;;;;5056835;28;20408;-63
2023/09/25 08:12:45;;;;;;;0.30;0.30;;;26.60;79.80;;;;;;5056706;28;20447;-60
2023/09/25 08:15:10;;;;;;;0.30;0.30;;;27.50;78.50;;;;;;5056172;28;20417;-61
2023/09/25 08:17:37;;;;;;;0.40;0.40;;;28.30;76.60;;;;;;5060462;28;20409;-61
2023/09/25 08:20:14;;;;;;;0.40;0.40;;;29.20;73.10;;;;;;5074332;28;20212;-60
2023/09/25 08:22:43;;;;;;;1.77;0.40;;;29.70;70.70;;;;;;5076558;28;20888;-65
2023/09/25 08:25:09;;;;;;;0.30;0.30;;;29.80;69.20;;;;;;5075854;28;20605;-62
2023/09/25 08:27:37;;;;;;;0.40;0.30;;;30.00;65.90;;;;;;5076527;28;20427;-64
2023/09/25 08:30:04;;;;;;;0.33;0.33;;;30.00;65.90;;;;;;5076329;28;20889;-64
2023/09/25 08:32:31;;;;;;;0.30;0.30;;;29.80;65.00;;;;;;5073252;28;20514;-63
2023/09/25 08:34:57;;;;;;;0.40;0.40;;;29.60;65.90;;;;;;5055753;28;20431;-64
2023/09/25 08:37:24;;;;;;;0.43;0.37;;;29.40;66.00;;;;;;5056392;28;20419;-62
2023/09/25 08:39:51;;;;;;;0.63;0.30;;;29.20;65.90;;;;;;5056068;28;20813;-64
2023/09/25 08:42:19;;;;;;;0.50;0.40;;;29.20;65.90;;;;;;5056104;28;20367;-62
2023/09/25 08:44:44;;;;;;;0.30;0.23;;;29.50;66.20;;;;;;5059348;28;20418;-64
2023/09/25 08:47:11;;;;;;;0.30;0.30;;;29.80;65.00;;;;;;5076806;28;20937;-63
2023/09/25 08:49:38;;;;;;;0.40;0.40;;;29.90;64.90;;;;;;5076056;28;20185;-63
2023/09/25 08:52:03;;;;;;;0.40;0.40;;;29.80;65.10;;;;;;5076177;28;20407;-62
2023/09/25 08:54:29;;;;;;;0.50;0.50;;;29.80;64.40;;;;;;5074342;28;20431;-62
2023/09/25 08:56:55;;;;;;;0.40;0.40;;;29.70;64.60;;;;;;5075846;28;20250;-63
2023/09/25 08:59:24;;;;;;;0.40;0.37;;;29.80;65.00;;;;;;5075268;28;20223;-62
2023/09/25 09:01:51;;;;;;;0.33;0.33;;;30.00;64.20;;;;;;5075808;28;20896;-61
2023/09/25 09:04:16;;;;;;;0.80;0.77;;;30.40;63.40;;;;;;5075530;28;20381;-62
2023/09/25 09:06:42;;;;;;;0.60;0.60;;;30.70;63.60;;;;;;5075612;28;20524;-64
2023/09/25 09:09:09;;;;;;;0.30;0.30;;;31.40;62.50;;;;;;5075789;28;20177;-63
2023/09/25 09:11:35;;;;;;;0.40;0.40;;;32.00;61.00;;;;;;5075746;28;20234;-64
2023/09/25 09:14:01;;;;;;;0.60;0.60;;;32.30;59.70;;;;;;5073267;28;20431;-62
2023/09/25 09:16:27;;;;;;;0.40;0.40;;;32.20;59.00;;;;;;5075504;28;20430;-62
2023/09/25 09:19:06;;;;;;;0.40;0.40;;;32.30;59.60;;;;;;5075457;28;20991;-61
2023/09/25 09:21:33;;;;;;;0.30;0.30;;;32.60;58.90;;;;;;5075413;28;20252;-61
2023/09/25 09:23:59;;;;;;;0.57;0.57;;;33.00;58.20;;;;;;5074810;28;20411;-62
2023/09/25 09:26:25;;;;;;;0.73;0.60;;;33.20;57.10;;;;;;5075264;28;20435;-63
2023/09/25 09:28:53;;;;;;;0.40;0.40;;;32.80;57.00;;;;;;5058083;28;20458;-62
2023/09/25 09:31:20;;;;;;;0.30;0.30;;;32.60;57.20;;;;;;5055180;28;20762;-63
2023/09/25 09:33:46;;;;;;;0.60;0.60;;;32.30;57.20;;;;;;5054690;28;20810;-61
2023/09/25 09:36:12;;;;;;;0.30;0.30;;;32.00;58.40;;;;;;5054727;28;20451;-64
2023/09/25 09:38:39;;;;;;;0.30;0.30;;;32.00;58.00;;;;;;5055041;28;20961;-62
2023/09/25 09:41:06;;;;;;;0.53;0.53;;;31.90;57.50;;;;;;5062488;28;20419;-63
2023/09/25 09:43:32;;;;;;;0.60;0.60;;;31.90;57.80;;;;;;5075047;28;20419;-62
2023/09/25 09:45:59;;;;;;;0.30;0.30;;;31.70;57.40;;;;;;5074265;28;20929;-63
2023/09/25 09:48:28;;;;;;;0.30;0.30;;;31.40;58.30;;;;;;5074692;28;20183;-62
2023/09/25 09:50:59;;;;;;;0.30;0.30;;;31.40;58.70;;;;;;5074418;28;20901;-62
2023/09/25 09:53:28;;;;;;;0.40;0.40;;;31.70;58.50;;;;;;5074493;28;20418;-64
2023/09/25 09:55:55;;;;;;;0.30;0.30;;;31.80;57.70;;;;;;5073566;28;20446;-63
2023/09/25 09:58:21;;;;;;;0.30;0.30;;;31.60;57.60;;;;;;5074328;28;20450;-64
2023/09/25 10:00:46;;;;;;;0.40;0.40;;;31.70;57.20;;;;;;5074568;28;20439;-62
2023/09/25 10:03:12;;;;;;;0.80;0.67;;;31.20;58.00;;;;;;5074257;28;20594;-63
2023/09/25 10:05:51;;;;;;;0.37;0.37;;;31.00;57.80;;;;;;5073675;28;20251;-63
2023/09/25 10:08:17;;;;;;;0.60;0.60;;;30.70;57.90;;;;;;5074540;28;20176;-64
2023/09/25 10:10:49;;;;;;;0.30;0.30;;;30.40;58.60;;;;;;5064931;28;20444;-62
2023/09/25 10:13:25;;;;;;;0.40;0.30;;;30.20;58.50;;;;;;5054181;28;20495;-63
2023/09/25 10:15:53;;;;;;;0.30;0.30;;;29.70;59.00;;;;;;5054052;28;20721;-63
2023/09/25 10:18:20;;;;;;;0.30;0.30;;;29.40;59.90;;;;;;5052742;28;20753;-63
2023/09/25 10:20:46;;;;;;;1.97;0.67;;;29.30;60.00;;;;;;5054120;28;20499;-63
2023/09/25 10:23:23;;;;;;;0.40;0.30;;;29.20;60.90;;;;;;5054111;28;20407;-64
2023/09/25 10:25:57;;;;;;;0.30;0.30;;;29.20;61.20;;;;;;5053614;28;20502;-63
2023/09/25 10:28:28;;;;;;;0.73;0.73;;;29.30;61.20;;;;;;5054204;28;20824;-63
2023/09/25 10:31:02;;;;;;;0.60;0.60;;;29.20;60.60;;;;;;5054039;28;20774;-63
2023/09/25 10:33:31;;;;;;;0.30;0.30;;;29.10;59.30;;;;;;5059168;28;20404;-62
2023/09/25 10:36:04;;;;;;;1.53;0.67;;;29.10;59.90;;;;;;5073258;28;20431;-61
2023/09/25 10:38:34;;;;;;;0.53;0.53;;;29.20;59.70;;;;;;5073699;28;20466;-63
2023/09/25 10:41:02;;;;;;;0.30;0.30;;;29.50;58.80;;;;;;5073988;28;20411;-63
2023/09/25 10:43:28;;;;;;;0.30;0.30;;;29.50;59.20;;;;;;5074139;28;20430;-63
2023/09/25 10:45:54;;;;;;;0.30;0.30;;;29.50;59.00;;;;;;5071947;28;20461;-63
2023/09/25 10:48:22;;;;;;;0.40;0.33;;;29.60;59.20;;;;;;5066853;28;20574;-63
2023/09/25 10:50:49;;;;;;;0.30;0.20;;;29.40;59.50;;;;;;5053567;28;20486;-63
2023/09/25 10:53:15;;;;;;;0.83;0.83;;;29.30;59.30;;;;;;5053637;28;20452;-62
2023/09/25 10:55:41;;;;;;;0.40;0.40;;;28.90;60.80;;;;;;5053068;28;20403;-61
2023/09/25 10:58:08;;;;;;;0.30;0.30;;;28.60;60.70;;;;;;5053554;28;20797;-61
2023/09/25 11:00:38;;;;;;;0.30;0.30;;;28.20;60.90;;;;;;5053475;28;20414;-62
2023/09/25 11:03:04;;;;;;;0.50;0.30;;;27.90;60.40;;;;;;5073636;28;20422;-63
2023/09/25 11:05:32;;;;;;;0.30;0.30;;;27.30;61.90;;;;;;5072891;28;20434;-62
2023/09/25 11:07:58;;;;;;;4.73;0.50;;;26.70;62.80;;;;;;5073196;28;20484;-63
2023/09/25 11:10:35;;;;;;;0.30;0.30;;;26.00;63.60;;;;;;5073525;28;20386;-62
2023/09/25 11:13:02;;;;;;;0.30;0.30;;;25.20;66.10;;;;;;5073730;28;20377;-61
2023/09/25 11:15:28;;;;;;;0.30;0.30;;;24.60;67.50;;;;;;5071216;28;20428;-63
2023/09/25 11:17:57;;;;;;;0.40;0.30;;;24.00;68.20;;;;;;5034875;28;20379;-63
2023/09/25 11:20:29;;;;;;;0.30;0.30;;;23.50;70.50;;;;;;5053910;28;20444;-62
2023/09/25 11:23:05;;;;;;;0.40;0.40;;;23.20;70.30;;;;;;5053894;28;20503;-63
2023/09/25 11:25:42;;;;;;;0.37;0.37;;;23.00;70.60;;;;;;5052690;28;20786;-63
2023/09/25 11:28:08;;;;;;;0.40;0.40;;;22.80;71.60;;;;;;5064483;28;20510;-65
2023/09/25 11:30:34;;;;;;;0.30;0.30;;;22.50;71.20;;;;;;5057239;28;20422;-64
2023/09/25 11:33:06;;;;;;;0.30;0.30;;;22.20;72.00;;;;;;5052999;28;20404;-66
2023/09/25 11:35:34;;;;;;;0.30;0.20;;;22.00;73.20;;;;;;5052784;28;20458;-66
2023/09/25 11:38:11;;;;;;;0.30;0.20;;;21.80;73.80;;;;;;5063895;28;20429;-65
2023/09/25 11:40:38;;;;;;;0.30;0.20;;;21.80;73.80;;;;;;5058379;28;20386;-66
2023/09/25 11:43:03;;;;;;;0.30;0.20;;;21.80;73.70;;;;;;5072956;28;20377;-64
2023/09/25 11:45:30;;;;;;;0.30;0.30;;;21.70;75.70;;;;;;5067464;28;20974;-68
2023/09/25 11:47:56;;;;;;;0.30;0.30;;;21.70;75.20;;;;;;5070412;28;20196;-65
2023/09/25 11:50:22;;;;;;;0.30;0.30;;;21.70;75.80;;;;;;5051554;28;20415;-65
2023/09/25 11:52:47;;;;;;;0.30;0.30;;;21.70;75.40;;;;;;5052833;28;20551;-64
2023/09/25 11:55:16;;;;;;;0.30;0.30;;;21.80;75.10;;;;;;5064411;28;20472;-67
2023/09/25 11:57:43;;;;;;;0.30;0.30;;;21.80;76.20;;;;;;5070924;28;20204;-64
2023/09/25 12:00:13;;;;;;;0.30;0.20;;;21.80;74.60;;;;;;5055347;28;20460;-65
2023/09/25 12:02:48;;;;;;;0.30;0.20;;;21.90;75.10;;;;;;5073527;28;20487;-69
2023/09/25 12:05:14;;;;;;;0.30;0.30;;;21.90;74.80;;;;;;5069918;28;20438;-65
2023/09/25 12:07:43;;;;;;;0.37;0.33;;;21.90;73.30;;;;;;5052927;28;20405;-66
2023/09/25 12:10:12;;;;;;;0.30;0.20;;;21.90;73.70;;;;;;5069135;28;20431;-66
2023/09/25 12:12:39;;;;;;;0.30;0.20;;;21.90;73.30;;;;;;5070987;28;20430;-66
2023/09/25 12:15:07;;;;;;;0.30;0.20;;;21.90;73.20;;;;;;5071737;28;20470;-65
2023/09/25 12:17:34;;;;;;;0.30;0.20;;;21.90;73.60;;;;;;5052799;28;20776;-66
2023/09/25 12:20:01;;;;;;;0.50;0.50;;;21.90;73.90;;;;;;5052829;28;20514;-65
2023/09/25 12:22:28;;;;;;;0.30;0.30;;;21.90;75.30;;;;;;5052879;28;20411;-64
2023/09/25 12:24:53;;;;;;;0.30;0.20;;;22.00;73.00;;;;;;5051931;28;20953;-67
2023/09/25 12:27:19;;;;;;;0.30;0.20;;;22.00;73.50;;;;;;5070474;28;20393;-66
2023/09/25 12:29:45;;;;;;;0.30;0.30;;;22.00;73.20;;;;;;5073499;28;20193;-66
2023/09/25 12:32:11;;;;;;;0.30;0.30;;;22.00;73.70;;;;;;5075642;28;20212;-65
2023/09/25 12:34:37;;;;;;;0.30;0.30;;;22.00;73.40;;;;;;5060208;28;20256;-66
2023/09/25 12:37:03;;;;;;;0.30;0.30;;;22.00;73.70;;;;;;5056306;28;20932;-65
2023/09/25 12:39:29;;;;;;;0.30;0.20;;;21.90;73.60;;;;;;5055462;28;20507;-65
2023/09/25 12:41:54;;;;;;;0.30;0.30;;;22.00;74.40;;;;;;5055692;28;20181;-64
2023/09/25 12:44:20;;;;;;;0.30;0.30;;;22.00;74.30;;;;;;5055773;28;20174;-64
2023/09/25 12:46:47;;;;;;;0.90;0.47;;;22.00;74.10;;;;;;5060224;28;20276;-64
2023/09/25 12:49:12;;;;;;;0.30;0.30;;;22.00;73.60;;;;;;5075321;28;20431;-64
2023/09/25 12:51:38;;;;;;;0.30;0.20;;;22.10;74.40;;;;;;5075916;28;20848;-64
2023/09/25 12:54:04;;;;;;;0.30;0.20;;;22.10;74.50;;;;;;5075269;28;20180;-64
2023/09/25 12:56:31;;;;;;;0.30;0.20;;;22.10;74.40;;;;;;5075680;28;20232;-64
2023/09/25 12:58:56;;;;;;;0.40;0.40;;;22.20;74.20;;;;;;5071668;28;20200;-63
2023/09/25 13:01:23;;;;;;;0.30;0.20;;;22.10;74.20;;;;;;5058791;28;20415;-64
2023/09/25 13:03:49;;;;;;;0.30;0.30;;;22.20;74.80;;;;;;5064711;28;20181;-63
2023/09/25 13:06:14;;;;;;;0.40;0.40;;;22.20;73.90;;;;;;5055114;28;20413;-65
2023/09/25 13:08:40;;;;;;;0.40;0.40;;;22.30;74.60;;;;;;5055358;28;20635;-65
2023/09/25 13:11:05;;;;;;;0.30;0.30;;;22.20;73.70;;;;;;5055398;28;20177;-65
2023/09/25 13:13:31;;;;;;;0.30;0.20;;;22.30;74.70;;;;;;5057274;28;20179;-62
2023/09/25 13:15:57;;;;;;;0.30;0.30;;;22.30;76.10;;;;;;5063160;28;20264;-63
2023/09/25 13:18:22;;;;;;;0.30;0.20;;;22.30;75.60;;;;;;5054848;28;20284;-64
2023/09/25 13:20:48;;;;;;;0.30;0.30;;;22.40;75.00;;;;;;5061318;28;20207;-64
2023/09/25 13:23:13;;;;;;;0.50;0.50;;;22.40;74.20;;;;;;5075272;28;20275;-64
2023/09/25 13:25:39;;;;;;;0.30;0.20;;;22.30;74.10;;;;;;5069522;28;20193;-64
2023/09/25 13:28:05;;;;;;;0.30;0.30;;;22.30;74.60;;;;;;5055252;28;20567;-64
2023/09/25 13:30:30;;;;;;;0.30;0.27;;;22.30;74.30;;;;;;5055246;28;20664;-64
2023/09/25 13:32:56;;;;;;;0.30;0.30;;;22.30;73.80;;;;;;5055446;28;20195;-64
2023/09/25 13:35:23;;;;;;;0.47;0.27;;;22.30;74.30;;;;;;5054531;28;20716;-63
2023/09/25 13:37:49;;;;;;;0.40;0.30;;;22.40;74.50;;;;;;5054555;28;20216;-63
2023/09/25 13:40:16;;;;;;;0.30;0.23;;;22.40;73.90;;;;;;5065030;28;20496;-63
2023/09/25 13:42:43;;;;;;;0.30;0.30;;;22.40;73.70;;;;;;5075023;28;20382;-63
2023/09/25 13:45:12;;;;;;;0.30;0.30;;;22.40;73.90;;;;;;5066256;28;20489;-64
2023/09/25 13:47:44;;;;;;;0.30;0.30;;;22.40;73.80;;;;;;5074759;28;20404;-64
2023/09/25 13:50:11;;;;;;;0.30;0.30;;;22.40;73.60;;;;;;5067973;28;20443;-64
2023/09/25 13:52:37;;;;;;;0.30;0.30;;;22.40;73.80;;;;;;5054949;28;20421;-64
2023/09/25 13:55:04;;;;;;;0.30;0.30;;;22.40;74.10;;;;;;5054360;28;20465;-64
2023/09/25 13:57:32;;;;;;;0.30;0.20;;;22.40;74.70;;;;;;5054372;28;20911;-63
2023/09/25 13:59:58;;;;;;;0.33;0.33;;;22.30;75.40;;;;;;5054014;28;20502;-64
2023/09/25 14:02:25;;;;;;;0.30;0.30;;;22.40;75.60;;;;;;5054886;28;20412;-64
2023/09/25 14:04:50;;;;;;;0.30;0.20;;;22.40;74.90;;;;;;5055042;28;20891;-64
2023/09/25 14:07:16;;;;;;;0.30;0.20;;;22.50;74.50;;;;;;5058817;28;20448;-64
2023/09/25 14:09:41;;;;;;;0.30;0.30;;;22.40;74.60;;;;;;5061449;28;20241;-63
2023/09/25 14:12:07;;;;;;;0.30;0.20;;;22.50;74.80;;;;;;5062149;28;20185;-65
2023/09/25 14:14:45;;;;;;;0.30;0.30;;;22.50;75.70;;;;;;5057622;28;20578;-65
2023/09/25 14:17:11;;;;;;;0.30;0.30;;;22.50;76.50;;;;;;5068049;28;20177;-64
2023/09/25 14:19:36;;;;;;;0.30;0.20;;;22.50;76.40;;;;;;5054708;28;20557;-64
2023/09/25 14:22:06;;;;;;;0.30;0.20;;;22.40;76.40;;;;;;5054329;28;20699;-63
2023/09/25 14:24:31;;;;;;;0.30;0.30;;;22.40;76.80;;;;;;5053729;28;20174;-65
2023/09/25 14:27:00;;;;;;;0.93;0.57;;;22.40;76.50;;;;;;5067262;28;20784;-64
2023/09/25 14:29:30;;;;;;;0.30;0.20;;;22.40;75.80;;;;;;5074418;28;20693;-65
2023/09/25 14:31:57;;;;;;;0.30;0.30;;;22.40;76.30;;;;;;5074208;28;20408;-63
2023/09/25 14:34:23;;;;;;;1.10;0.80;;;22.40;76.70;;;;;;5073581;28;20374;-64
2023/09/25 14:36:49;;;;;;;0.30;0.30;;;22.40;77.10;;;;;;5073190;28;20424;-63
2023/09/25 14:39:18;;;;;;;0.30;0.30;;;22.40;77.50;;;;;;5074050;28;20451;-64
2023/09/25 14:41:44;;;;;;;0.30;0.20;;;22.40;77.40;;;;;;5073784;28;20177;-64
2023/09/25 14:44:10;;;;;;;0.30;0.20;;;22.40;78.10;;;;;;5073692;28;20413;-64
2023/09/25 14:46:35;;;;;;;0.43;0.43;;;22.40;79.50;;;;;;5073647;28;20435;-64
2023/09/25 14:49:01;;;;;;;0.30;0.20;;;22.40;79.50;;;;;;5073790;28;20176;-64
2023/09/25 14:51:27;;;;;;;0.30;0.30;;;22.40;79.20;;;;;;5073799;28;20684;-64
2023/09/25 14:53:52;;;;;;;0.30;0.20;;;22.30;78.80;;;;;;5064932;28;20180;-64
2023/09/25 14:56:18;;;;;;;0.30;0.30;;;22.30;78.90;;;;;;5053721;28;20752;-65
2023/09/25 14:58:44;;;;;;;0.30;0.20;;;22.30;79.90;;;;;;5053670;28;20233;-64
2023/09/25 15:01:09;;;;;;;0.30;0.20;;;22.30;79.20;;;;;;5053433;28;20271;-63
2023/09/25 15:03:35;;;;;;;0.30;0.20;;;22.30;79.20;;;;;;5052975;28;20204;-64
2023/09/25 15:06:01;;;;;;;0.30;0.30;;;22.30;78.90;;;;;;5053339;28;20688;-65
2023/09/25 15:08:27;;;;;;;0.30;0.30;;;22.30;79.90;;;;;;5053379;28;20420;-66
2023/09/25 15:10:54;;;;;;;0.30;0.20;;;22.30;80.40;;;;;;5053388;28;20236;-65
2023/09/25 15:13:20;;;;;;;0.30;0.30;;;22.20;79.50;;;;;;5053218;28;20439;-64
2023/09/25 15:15:46;;;;;;;0.30;0.30;;;22.20;79.70;;;;;;5052903;28;20424;-65
2023/09/25 15:18:11;;;;;;;0.50;0.50;;;22.20;79.80;;;;;;5053261;28;20828;-64
2023/09/25 15:20:37;;;;;;;0.30;0.30;;;22.10;80.10;;;;;;5053241;28;20207;-65
2023/09/25 15:23:03;;;;;;;0.40;0.30;;;22.20;80.10;;;;;;5064945;28;20180;-65
2023/09/25 15:25:30;;;;;;;0.30;0.30;;;22.10;80.00;;;;;;5072816;28;20574;-64
2023/09/25 15:27:55;;;;;;;0.37;0.37;;;22.10;80.60;;;;;;5073345;28;20168;-63
2023/09/25 15:30:22;;;;;;;0.30;0.20;;;22.10;80.80;;;;;;5073209;28;20413;-64
2023/09/25 15:32:47;;;;;;;0.30;0.20;;;22.10;80.40;;;;;;5073103;28;20544;-64
2023/09/25 15:35:15;;;;;;;0.30;0.30;;;22.10;80.80;;;;;;5072599;28;20439;-65
2023/09/25 15:37:40;;;;;;;0.30;0.20;;;22.00;81.20;;;;;;5062072;28;20651;-65
2023/09/25 15:40:08;;;;;;;0.50;0.50;;;22.00;81.50;;;;;;5053072;28;20457;-64
2023/09/25 15:42:33;;;;;;;0.30;0.20;;;22.00;82.50;;;;;;5052950;28;20718;-65
2023/09/25 15:44:59;;;;;;;0.40;0.40;;;22.00;82.30;;;;;;5058534;28;20410;-65
2023/09/25 15:47:25;;;;;;;0.30;0.20;;;22.00;82.00;;;;;;5073055;28;20374;-64
2023/09/25 15:49:51;;;;;;;0.30;0.30;;;22.00;82.30;;;;;;5073275;28;20943;-65
2023/09/25 15:52:18;;;;;;;2.30;0.70;;;22.00;82.40;;;;;;5073078;28;20702;-63
2023/09/25 15:54:44;;;;;;;0.30;0.20;;;21.90;83.10;;;;;;5072583;28;20169;-65
2023/09/25 15:57:10;;;;;;;0.30;0.20;;;21.90;83.20;;;;;;5058784;28;20788;-64
2023/09/25 15:59:40;;;;;;;0.30;0.30;;;21.90;83.40;;;;;;5052999;28;20986;-64
2023/09/25 16:02:10;;;;;;;0.30;0.30;;;21.90;84.10;;;;;;5053285;28;20506;-65
2023/09/25 16:04:36;;;;;;;0.30;0.20;;;21.90;84.30;;;;;;5054598;28;20424;-65
2023/09/25 16:07:03;;;;;;;0.30;0.20;;;21.80;84.30;;;;;;5056617;28;20992;-64
2023/09/25 16:09:28;;;;;;;0.30;0.30;;;21.80;84.60;;;;;;5057080;28;20901;-64
2023/09/25 16:11:54;;;;;;;0.57;0.57;;;21.70;84.70;;;;;;5056689;28;20436;-63
2023/09/25 16:14:20;;;;;;;0.50;0.40;;;21.70;85.40;;;;;;5056688;28;20185;-63
2023/09/25 16:16:46;;;;;;;0.30;0.30;;;21.60;85.20;;;;;;5056899;28;20527;-66
2023/09/25 16:19:11;;;;;;;1.03;0.83;;;21.60;86.20;;;;;;5056849;28;20220;-63
2023/09/25 16:21:37;;;;;;;0.30;0.30;;;21.60;86.30;;;;;;5056627;28;20178;-63
2023/09/25 16:24:03;;;;;;;0.30;0.20;;;21.50;86.90;;;;;;5058245;28;20167;-65
2023/09/25 16:26:29;;;;;;;0.30;0.20;;;21.50;87.40;;;;;;5055904;28;20351;-64
2023/09/25 16:28:54;;;;;;;0.67;0.67;;;21.40;87.20;;;;;;5057892;28;20443;-63
2023/09/25 16:31:20;;;;;;;0.30;0.30;;;21.40;87.70;;;;;;5065763;28;20268;-66
2023/09/25 16:33:46;;;;;;;0.30;0.30;;;21.40;88.30;;;;;;5056130;28;20193;-63
2023/09/25 16:36:13;;;;;;;0.33;0.33;;;21.30;89.20;;;;;;5056440;28;20394;-66
2023/09/25 16:38:38;;;;;;;0.30;0.30;;;21.20;89.40;;;;;;5056490;28;20192;-65
2023/09/25 16:41:08;;;;;;;0.30;0.20;;;21.20;90.10;;;;;;5074569;28;20861;-66
2023/09/25 16:43:34;;;;;;;0.30;0.30;;;21.10;90.20;;;;;;5075957;28;20170;-69
2023/09/25 16:46:05;;;;;;;0.30;0.20;;;21.10;90.30;;;;;;5074192;28;20501;-72
2023/09/25 16:48:31;;;;;;;0.60;0.40;;;21.00;90.70;;;;;;5076255;28;20423;-65
2023/09/25 16:50:57;;;;;;;0.30;0.20;;;20.90;90.60;;;;;;5076143;28;20396;-65